x

Buoy A01 - Mass. Bay/stellwagen (44029) Wave Buoy

11:04pm - Wed 1st Jul 2015 All times are EDT. -4 hours from GMT.

  • Sig Wave height 2.3ft
  • Peak Period 5s
  • Wind
    9mph, 11mph gusts
  • Sea Temp 59°f
  • 空気 Temp 63°f
  • Sea Pressure 1007.3mb
  • Buoy A01 - Mass. Bay/stellwagen
  • Buoy A01 - Mass. Bay/stellwagen

More Historic Weather Station data

Upgrade to MSW Pro to gain access to the past 30 days of data for over 8000 Wavebouys and Weather Stations around the globe.

Join Pro

Comparision Forecast

View Surf forecast
   
Wed 07/01 11:04pm 2.5ft 5s 9 11 mph 1007.3mb 59f 63f
10:04pm 2.5ft 6s 11 13 mph 1007.3mb 58f 63f
9:04pm 2.5ft 8s 16 22 mph 1006.8mb 59f 67f
8:04pm 2.5ft 5s 7 9 mph 1005.6mb 59f 64f
7:04pm 2.5ft 8s 11 13 mph 1004.9mb 59f 65f
6:04pm 3ft 8s 11 16 mph 1004.7mb 59f 66f
5:04pm 2.5ft 5s 9 11 mph 1004.8mb 59f 64f
4:04pm 3ft 5s 9
mph
1004.7mb 59f 63f
3:04pm 3.5ft 5s 13 16 mph 1005.4mb 60f 63f
2:04pm 4ft 5s 16 20 mph 1005.7mb 60f 62f
1:04pm 4.5ft 5s 20 25 mph 1006.1mb 59f 62f
12:04pm 4.5ft 5s 20 25 mph 1006.4mb 60f 63f
11:04am 3.5ft 8s 20 25 mph 1007.2mb 60f 63f
10:04am 3.5ft 8s 20 22 mph 1007.7mb 60f 62f
9:04am 3ft 8s 9 11 mph 1011.1mb 60f 61f
8:04am 3ft 8s 9 11 mph 1010.9mb 60f 61f
7:04am 3ft 8s 16 18 mph 1010.5mb 60f 62f
6:04am 2.5ft 8s 11
mph
1010.3mb 59f 61f
5:04am 2ft 8s 9
mph
1011.4mb 59f 61f
4:04am 2.5ft 8s 9 11 mph 1011.9mb 59f 61f
3:04am 2.5ft 11s 9
mph
1011.9mb 59f 60f
2:04am 2.5ft 8s 7 9 mph 1012.7mb 59f 61f
1:04am 2.5ft 8s 4 7 mph 1013.3mb 59f 60f
12:04am 2.5ft 8s 7
mph
1013.6mb 58f 61f
Tue 06/30 11:04pm 2.5ft 8s 11 13 mph 1013.7mb 59f 63f
10:04pm 2.5ft 8s 9 11 mph 1013.9mb 58f 62f
9:04pm 3.5ft 8s 11 13 mph 1013.2mb 58f 65f
8:04pm 3.5ft 8s 9 11 mph 1013mb 58f 63f
6:04pm 3.5ft 8s 9
mph
1013.4mb 59f 64f
5:04pm 3ft 8s 11 13 mph 1013.8mb 60f 63f
4:04pm 3.5ft 8s 9 11 mph 1014.1mb 59f 63f
3:04pm 3ft 8s 9
mph
1014.7mb 60f 64f
2:04pm 3ft 8s 7 9 mph 1014.5mb 58f 64f
1:04pm 2.5ft 8s 4 7 mph 1014.7mb 58f 64f
12:04pm 3ft 8s 7 9 mph 1015mb 58f 63f
11:04am 3.5ft 11s 7 9 mph 1015mb 58f 63f
10:04am 3.5ft 11s 4
mph
1014.7mb 58f 61f
9:04am 3.5ft 11s 4
mph
1015.1mb 58f 61f
8:04am 3ft 11s 4 7 mph 1015.1mb 58f 61f
7:04am 3ft 8s 9 11 mph 1014.5mb 58f 61f
6:04am 3.5ft 11s 4 7 mph 1014.2mb 58f 60f
5:04am 3ft 8s 7
mph
1014mb 58f 60f
4:04am 3ft 8s 9 11 mph 1013.8mb 58f 60f
3:04am 3ft 8s 9
mph
1013.3mb 58f 60f
2:04am 3.5ft 11s 4
mph
1012.9mb 58f 60f
1:04am 3.5ft 8s 7 9 mph 1012.8mb 58f 61f
12:04am 4ft 11s 13
mph
1012.3mb 58f 62f
Mon 06/29 11:04pm 3.5ft 8s 11 13 mph 1011.9mb 58f 62f
10:04pm 4ft 11s 9
mph
1011.7mb 57f 62f
9:04pm 4ft 8s 9
mph
1011mb 58f 63f
8:04pm 4.5ft 8s 9 11 mph 1010.8mb 58f 62f
7:04pm 3.5ft 8s 9 11 mph 1010.6mb 58f 62f
6:04pm 4ft 11s 9 11 mph 1010.1mb 58f 61f
5:04pm 3.5ft 11s 9 11 mph 1010mb 58f 61f
4:04pm 3.5ft 11s 9 11 mph 1010.1mb 58f 60f
3:04pm 3.5ft 8s 9 11 mph 1010.2mb 57f 60f
2:04pm 4.5ft 11s 7
mph
1009.8mb 58f 59f
1:04pm 4ft 11s 9
mph
1010.3mb 57f 58f
12:04pm 3.5ft 11s 9 11 mph 1010.1mb 58f 58f
11:04am 4.5ft 11s 9
mph
1009.7mb 57f 58f
10:04am 4.5ft 8s 7 9 mph 1009.5mb 57f 57f
9:04am 5ft 8s 9 11 mph 1009.4mb 56f 56f
8:04am 4.5ft 11s 7 9 mph 1009.4mb 56f 56f
7:04am 5ft 8s 4 7 mph 1009.2mb 56f 56f
6:04am 6ft 11s 4 7 mph 1009mb 56f 56f
5:04am 6ft 11s 2 4 mph 1008.5mb 56f 55f
4:04am 6.5ft 8s 2 4 mph 1007.9mb 55f 55f
3:04am 6ft 11s 4 7 mph 1007.5mb 56f 55f
2:04am 7.5ft 8s 7 11 mph 1007.5mb 57f 55f
1:04am 7ft 11s 11 13 mph 1007mb 58f 54f
12:04am 8.5ft 11s 18 20 mph 1006.9mb 58f 54f
Sun 06/28 11:04pm 7.5ft 8s 20 22 mph 1006.8mb 58f 53f
10:04pm 8.5ft 11s 20 25 mph 1006.4mb 58f 54f
9:04pm 8.5ft 11s 22 27 mph 1005.3mb 57f 55f
8:04pm 9ft 8s 20 25 mph 1004.7mb 58f 55f
7:04pm 11.5ft 11s 20 25 mph 1004.5mb 59f 56f
6:04pm 9ft 11s 22 27 mph 1003.8mb 59f 56f
5:04pm 10ft 8s 22 29 mph 1003.7mb 59f 56f
4:04pm 12ft 11s 22 27 mph 1003.8mb 59f 57f
3:04pm 11ft 8s 20 25 mph 1004.2mb 59f 58f
2:04pm 12ft 11s 20 25 mph 1004.3mb 58f 58f
1:04pm 12ft 8s 20 25 mph 1004.8mb 58f 58f
12:04pm 12ft 8s 27 34 mph 1005.3mb 58f 59f
11:04am 11ft 8s 25 29 mph 1006.5mb 58f 59f
10:04am 10.5ft 8s 20 27 mph 1007.7mb 59f 59f
9:04am 9ft 6s 22 27 mph 1008.2mb 59f 60f
8:04am 6ft 5s 27 31 mph 1008.2mb 60f 60f
7:04am 6ft 6s 25 29 mph 1009.5mb 60f 60f
6:04am 5.5ft 5s 27 31 mph 1010.8mb 60f 60f